Temple, TX (76501)

1:26 PM CDT on August 16, 2017 (GMT -0500)
Industrial Park | | Change Station

Elev 735 ft 31.13 °N, 97.35 °W | Updated 32 seconds ago

Partly Cloudy
Partly Cloudy
93.0 °F
Feels Like 101 °F
N
9.0
Wind Variable Wind from SSW

Today
High -- | Low -- °F
--% Chance of Precip.
Yesterday
High -- | Low -- °F
Precip. -- in
Pressure 29.95 in
Visibility 10.0 miles
Clouds Few 4400 ft
Heat Index 101 °F
Dew Point 72 °F
Humidity 51%
Rainfall 0.00 in
Snow Depth Not available.
6:56 AM 8:10 PM
Waning Crescent, 31% visible
METAR KTPL 161751Z AUTO 18016G21KT 10SM FEW044 34/22 A2996 RMK AO2 PK WND 19026/1700 SLP142 T03440222 10344 20256 58002
Pressure 29.95 in
Visibility 10.0 miles
Clouds Few 4400 ft
Heat Index 101 °F
Dew Point 72 °F
Humidity 51%
Rainfall 0.00 in
Snow Depth Not available.
6:56 AM 8:10 PM
Waning Crescent, 31% visible
METAR KTPL 161751Z AUTO 18016G21KT 10SM FEW044 34/22 A2996 RMK AO2 PK WND 19026/1700 SLP142 T03440222 10344 20256 58002

Get Severe Weather Alerts

Thanks for signing up!

Be on the lookout for a verification email in your inbox.

You'll start receiving the daily forecast at 6 AM.

×

10-Day Weather Forecast

Almanac

Astronomy

Aug. 16, 2017 Rise Set
Actual Time
Civil Twilight
Nautical Twilight
Astronomical Twilight
Moon
Length of Visible Light
Length of Day
Tomorrow will be .
, % of the Moon is Illuminated

Today's Extremes

State Highs State Lows

Community

WunderPhotos

Category 6

Welcome to Category 6. This is the collective home for Weather Underground's featured writeups by Dr. Jeff Masters (right), Bob Henson (left), Chris Burt, and other regular contributors.

Nearby

Air Quality

  Air Quality AQ Index Pollutant
Not available.

Snow Depth

Station Depth Elevation

Earthquake Activity

City Distance Mag. Time & Date
Minimum magnitude displayed is 2.5.

Coastal Water Temperatures

Place Temperature

Stations

Nearby Weather Stations

Station Location Temp. Windchill Dew Point Humidity Wind Precip. Elev Updated Type
                   

Watches & Warnings

There are currently no watches in effect.